Time;durP1;ratioP1;P1;durP2;ratioP2;P2;SDS_P1;SDS_P2;PMS_P1;PMS_P2;Temp;Humidity;BMP_temperature;BMP_pressure;BME280_temperature;BME280_humidity;BME280_pressure;Samples;Min_cycle;Max_cycle;Signal;HPM_P1;HPM_P2
2022/11/11 00:00:14;;;;;;;20.60;15.72;;;;;;;9.69;100.00;100561.67;1707361;82;21134;-67
2022/11/11 00:02:59;;;;;;;18.55;15.53;;;;;;;9.70;100.00;100570.41;1712051;82;21468;-67
2022/11/11 00:05:44;;;;;;;20.77;15.80;;;;;;;9.67;100.00;100572.66;1715435;82;21629;-66
2022/11/11 00:08:30;;;;;;;20.25;16.17;;;;;;;9.61;100.00;100576.77;1720135;82;22135;-67
2022/11/11 00:11:16;;;;;;;18.30;14.18;;;;;;;9.58;100.00;100583.38;1714815;81;21539;-69
2022/11/11 00:14:01;;;;;;;18.23;15.10;;;;;;;9.55;100.00;100581.70;1739794;81;21451;-67
2022/11/11 00:25:59;;;;;;;18.20;14.07;;;;;;;9.64;100.00;100581.06;1726638;81;21672;-65
2022/11/11 00:28:44;;;;;;;17.15;13.70;;;;;;;9.66;100.00;100583.20;1746430;81;21171;-65
2022/11/11 00:31:31;;;;;;;16.52;13.55;;;;;;;9.70;100.00;100583.11;1736018;81;21427;-65
2022/11/11 00:34:16;;;;;;;15.63;13.83;;;;;;;9.73;100.00;100589.58;1728279;81;21546;-65
2022/11/11 00:37:02;;;;;;;15.93;13.22;;;;;;;9.74;100.00;100582.13;1737945;81;22019;-65
2022/11/11 00:39:48;;;;;;;16.25;13.70;;;;;;;9.73;100.00;100580.38;1738399;81;21581;-65
2022/11/11 00:42:33;;;;;;;17.85;13.55;;;;;;;9.74;100.00;100581.27;1729136;81;21431;-65
2022/11/11 00:45:18;;;;;;;15.23;13.03;;;;;;;9.65;100.00;100579.72;1744317;81;21025;-65
2022/11/11 00:51:09;;;;;;;16.30;12.90;;;;;;;9.64;100.00;100584.54;1730508;81;21852;-66
2022/11/11 00:53:54;;;;;;;13.43;11.53;;;;;;;9.60;100.00;100585.98;1726563;81;21580;-67
2022/11/11 00:56:41;;;;;;;13.28;11.65;;;;;;;9.59;100.00;100585.13;1724722;81;21513;-67
2022/11/11 00:59:27;;;;;;;13.72;12.03;;;;;;;9.57;100.00;100584.30;1741918;81;21691;-67
2022/11/11 01:02:12;;;;;;;13.45;11.12;;;;;;;9.57;100.00;100577.73;1733338;81;21678;-66
2022/11/11 01:04:57;;;;;;;12.03;10.72;;;;;;;9.58;100.00;100579.91;1734515;80;21812;-66
2022/11/11 01:07:43;;;;;;;13.48;11.40;;;;;;;9.62;100.00;100588.97;1729805;81;21592;-67
2022/11/11 01:10:37;;;;;;;13.15;10.98;;;;;;;9.63;100.00;100586.77;1738872;81;21619;-67
2022/11/11 01:13:27;;;;;;;13.30;11.15;;;;;;;9.67;100.00;100592.81;1730161;81;21062;-66
2022/11/11 01:16:15;;;;;;;10.98;9.33;;;;;;;9.64;100.00;100601.61;1731170;81;21091;-66
2022/11/11 01:19:01;;;;;;;12.95;10.68;;;;;;;9.57;100.00;100604.42;1739414;81;21722;-66
2022/11/11 01:21:46;;;;;;;10.85;9.80;;;;;;;9.58;100.00;100597.83;1742766;81;21568;-66
2022/11/11 01:24:32;;;;;;;9.83;8.83;;;;;;;9.62;100.00;100597.30;1729855;81;21542;-66
2022/11/11 01:27:17;;;;;;;9.88;8.88;;;;;;;9.65;100.00;100599.87;1736369;81;21512;-66
2022/11/11 01:30:03;;;;;;;8.48;7.53;;;;;;;9.69;100.00;100600.20;1728900;81;21565;-66
2022/11/11 01:32:49;;;;;;;8.93;8.10;;;;;;;9.74;100.00;100607.53;1732175;81;21804;-66
2022/11/11 01:35:39;;;;;;;9.00;8.10;;;;;;;9.74;100.00;100607.53;1733800;81;21001;-66
2022/11/11 01:38:25;;;;;;;8.78;7.95;;;;;;;9.78;100.00;100610.49;1737415;81;21546;-66
2022/11/11 01:44:45;;;;;;;9.58;8.05;;;;;;;9.86;100.00;100603.73;1738362;81;21573;-66
2022/11/11 01:49:17;;;;;;;9.00;7.45;;;;;;;9.89;100.00;100607.61;1733223;81;21852;-67
2022/11/11 02:18:36;;;;;;;8.08;7.22;;;;;;;7.86;100.00;100677.16;1770175;78;23089;-67
2022/11/11 02:21:31;;;;;;;10.53;7.77;;;;;;;8.52;100.00;100685.28;1741449;80;20951;-66
2022/11/11 02:24:17;;;;;;;8.38;7.58;;;;;;;8.74;100.00;100673.50;1743189;80;21858;-67
2022/11/11 02:27:03;;;;;;;8.50;7.70;;;;;;;8.87;100.00;100666.70;1737423;80;21513;-67
2022/11/11 02:29:50;;;;;;;8.25;7.45;;;;;;;8.98;100.00;100652.92;1728019;80;21505;-66
2022/11/11 02:32:36;;;;;;;9.30;7.35;;;;;;;9.09;100.00;100651.41;1735888;80;21522;-66
2022/11/11 02:35:34;;;;;;;7.90;7.12;;;;;;;9.15;100.00;100639.45;1733047;80;21534;-65
2022/11/11 02:38:19;;;;;;;8.43;7.62;;;;;;;9.24;100.00;100643.66;1734291;80;21784;-66
2022/11/11 02:44:08;;;;;;;7.67;6.90;;;;;;;9.38;100.00;100646.86;1738676;80;21585;-67
2022/11/11 10:02:33;;;;;;;16.65;12.60;;;;;;;10.14;100.00;100910.07;1775226;78;23077;-61
2022/11/11 10:05:26;;;;;;;15.32;12.25;;;;;;;10.73;100.00;100921.52;1747346;80;21520;-59
2022/11/11 10:08:26;;;;;;;17.20;12.93;;;;;;;10.99;100.00;100901.63;1749756;80;21814;-59
2022/11/11 10:11:17;;;;;;;20.85;14.07;;;;;;;11.15;100.00;100893.77;1744111;80;21124;-61
2022/11/11 10:14:03;;;;;;;15.65;12.58;;;;;;;11.28;100.00;100887.28;1744532;80;21652;-60
2022/11/11 10:17:04;;;;;;;15.23;11.50;;;;;;;11.41;100.00;100891.75;1746845;80;21012;-60
2022/11/11 10:19:54;;;;;;;14.65;11.05;;;;;;;11.57;100.00;100894.00;1736499;80;21463;-59
2022/11/11 10:22:42;;;;;;;12.78;11.35;;;;;;;11.71;100.00;100887.03;1739131;80;21107;-59
2022/11/11 10:25:27;;;;;;;14.03;11.40;;;;;;;11.79;100.00;100881.08;1743883;80;20998;-62
2022/11/11 10:28:16;;;;;;;14.80;10.68;;;;;;;11.86;100.00;100887.45;1745467;80;21528;-61
2022/11/11 10:31:03;;;;;;;12.35;10.32;;;;;;;11.90;100.00;100875.55;1746841;80;21060;-62
2022/11/11 10:33:57;;;;;;;12.15;10.95;;;;;;;11.90;100.00;100872.45;1746891;80;21495;-60
2022/11/11 10:36:51;;;;;;;12.03;10.30;;;;;;;11.94;100.00;100878.50;1730402;80;21998;-60
2022/11/11 10:40:01;;;;;;;13.43;11.03;;;;;;;11.94;100.00;100883.34;1744398;80;21494;-59
2022/11/11 10:42:45;;;;;;;12.07;9.70;;;;;;;11.96;100.00;100878.88;1747920;80;21073;-60
2022/11/11 10:45:43;;;;;;;14.55;10.10;;;;;;;11.91;100.00;100874.66;1744218;80;20994;-60
2022/11/11 10:48:55;;;;;;;12.03;9.98;;;;;;;11.90;100.00;100873.77;1745523;80;21562;-61
2022/11/11 10:51:51;;;;;;;10.25;9.23;;;;;;;11.92;100.00;100868.45;1726345;80;21810;-61
2022/11/11 10:54:57;;;;;;;10.43;9.08;;;;;;;11.95;100.00;100858.69;1738779;80;21505;-61
2022/11/11 10:58:00;;;;;;;9.18;8.33;;;;;;;12.07;100.00;100861.41;1715550;80;21440;-59
2022/11/11 11:00:46;;;;;;;10.70;9.05;;;;;;;12.21;100.00;100864.98;1703559;82;21609;-61
2022/11/11 11:03:35;;;;;;;11.08;9.15;;;;;;;12.30;100.00;100864.70;1731800;81;21506;-63
2022/11/11 11:06:29;;;;;;;11.35;8.88;;;;;;;12.36;100.00;100868.46;1734761;80;21617;-61
2022/11/11 11:09:31;;;;;;;12.47;9.23;;;;;;;12.44;100.00;100858.99;1734154;81;21589;-61
2022/11/11 11:12:21;;;;;;;10.63;8.18;;;;;;;12.51;100.00;100859.21;1730050;80;21547;-61
2022/11/11 11:15:22;;;;;;;13.40;8.63;;;;;;;12.57;100.00;100852.41;1725561;81;21568;-59
2022/11/11 11:18:13;;;;;;;11.03;7.87;;;;;;;12.58;100.00;100863.82;1727308;81;21547;-60
2022/11/11 11:21:04;;;;;;;9.40;8.38;;;;;;;12.58;100.00;100864.70;1715852;81;21912;-59
2022/11/11 11:23:48;;;;;;;10.15;8.73;;;;;;;12.63;100.00;100853.99;1732215;80;21551;-60
2022/11/11 11:26:46;;;;;;;9.85;7.78;;;;;;;12.62;100.00;100854.45;1682200;84;21569;-59
2022/11/11 11:29:42;;;;;;;9.80;8.10;;;;;;;12.66;100.00;100847.31;1695388;83;21607;-60
2022/11/11 11:32:30;;;;;;;;;;;;;;;12.68;100.00;100844.16;1693574;82;21479;-61
2022/11/11 11:35:38;;;;;;;9.93;6.75;;;;;;;12.61;100.00;100839.99;1664513;84;20507;-61
2022/11/11 11:38:41;;;;;;;9.25;7.92;;;;;;;12.70;100.00;100843.66;1727582;81;28460;-60
2022/11/11 11:41:40;;;;;;;8.45;7.17;;;;;;;12.76;100.00;100848.72;1729331;81;21523;-60
2022/11/11 11:44:32;;;;;;;7.78;6.97;;;;;;;12.78;100.00;100852.17;1727043;81;21431;-61
2022/11/11 11:47:44;;;;;;;7.78;7.00;;;;;;;12.80;100.00;100852.12;1726508;80;21683;-61
2022/11/11 11:50:49;;;;;;;12.70;7.22;;;;;;;12.80;100.00;100852.98;1726965;81;22014;-61
2022/11/11 11:54:21;;;;;;;7.60;6.62;;;;;;;12.82;100.00;100852.47;1735161;80;21633;-61
2022/11/11 11:57:21;;;;;;;8.40;6.85;;;;;;;12.86;100.00;100851.91;1673835;84;21634;-61
2022/11/11 12:00:29;;;;;;;8.15;7.08;;;;;;;12.90;100.00;100850.05;1728359;81;21582;-61
2022/11/11 12:03:53;;;;;;;8.33;6.15;;;;;;;12.87;100.00;100848.84;1729168;80;21550;-61
2022/11/11 12:06:50;;;;;;;7.67;6.40;;;;;;;12.85;100.00;100850.21;1728283;80;22180;-61
2022/11/11 12:09:58;;;;;;;7.03;6.17;;;;;;;12.88;100.00;100854.52;1735440;80;21542;-60
2022/11/11 12:13:10;;;;;;;7.42;6.00;;;;;;;12.84;100.00;100848.00;1725229;80;21487;-65
2022/11/11 12:16:19;;;;;;;8.90;5.95;;;;;;;12.84;100.00;100850.64;1731762;80;21546;-61
2022/11/11 12:19:19;;;;;;;6.58;5.97;;;;;;;12.91;100.00;100855.74;1724255;80;21547;-61
2022/11/11 12:22:42;;;;;;;7.62;5.80;;;;;;;13.05;100.00;100860.08;1720921;81;21842;-61
2022/11/11 12:25:48;;;;;;;7.00;5.85;;;;;;;13.22;100.00;100855.11;1719814;80;21430;-64
2022/11/11 12:29:24;;;;;;;7.00;5.97;;;;;;;13.36;100.00;100840.59;1733137;80;21006;-61
2022/11/11 12:32:45;;;;;;;5.95;5.35;;;;;;;13.48;100.00;100844.57;1736103;80;21496;-60
2022/11/11 12:36:06;;;;;;;6.25;5.65;;;;;;;13.57;100.00;100847.73;1717987;80;21426;-62
2022/11/11 12:39:05;;;;;;;6.03;5.42;;;;;;;13.61;100.00;100845.85;1727722;80;21852;-61
2022/11/11 12:42:06;;;;;;;6.72;5.47;;;;;;;13.68;100.00;100842.08;1717052;81;21387;-60
2022/11/11 12:45:20;;;;;;;6.92;5.50;;;;;;;13.78;100.00;100839.48;1730272;80;21464;-58
2022/11/11 12:48:34;;;;;;;5.55;4.90;;;;;;;13.90;100.00;100834.66;1730149;81;21486;-58
2022/11/11 12:52:08;;;;;;;6.90;6.20;;;;;;;13.97;100.00;100844.94;1721164;80;21491;-60
2022/11/11 12:55:18;;;;;;;6.65;4.97;;;;;;;13.97;100.00;100842.30;1727173;80;21787;-60
2022/11/11 12:58:49;;;;;;;6.12;4.75;;;;;;;13.95;100.00;100844.14;1730969;80;21046;-60
2022/11/11 13:01:58;;;;;;;12.35;5.10;;;;;;;13.87;100.00;100847.54;1730023;80;21568;-61
2022/11/11 13:04:51;;;;;;;4.95;4.45;;;;;;;13.73;100.00;100849.38;1741151;80;21522;-59
2022/11/11 13:08:12;;;;;;;5.85;4.28;;;;;;;13.61;100.00;100859.92;1745529;80;21042;-62
2022/11/11 13:11:15;;;;;;;6.00;5.08;;;;;;;13.50;100.00;100863.41;1684690;81;21592;-59
2022/11/11 13:14:45;;;;;;;7.05;4.47;;;;;;;13.41;100.00;100869.89;1699903;82;21498;-58
2022/11/11 13:17:31;;;;;;;5.05;4.62;;;;;;;13.34;100.00;100871.02;1714551;82;21469;-58
2022/11/11 13:20:37;;;;;;;5.28;4.42;;;;;;;13.26;100.00;100879.64;1718371;81;21490;-58
2022/11/11 13:23:22;;;;;;;8.70;5.10;;;;;;;13.17;100.00;100883.45;1723700;81;21624;-58
2022/11/11 13:26:28;;;;;;;5.25;4.75;;;;;;;13.10;100.00;100885.88;1697287;82;22005;-58
2022/11/11 13:29:38;;;;;;;6.83;4.85;;;;;;;13.05;100.00;100890.45;1717274;82;21554;-58
2022/11/11 13:32:28;;;;;;;6.33;5.37;;;;;;;12.94;100.00;100894.78;1698608;82;21601;-60
2022/11/11 13:35:31;;;;;;;7.53;4.85;;;;;;;12.85;100.00;100897.72;1719379;82;21611;-58
2022/11/11 13:38:34;;;;;;;5.35;4.75;;;;;;;12.57;100.00;100866.07;1711350;82;21537;-59
2022/11/11 13:41:33;;;;;;;4.65;4.22;;;;;;;12.73;100.00;100904.23;1696819;82;21893;-57
2022/11/11 13:44:24;;;;;;;6.25;4.45;;;;;;;12.65;100.00;100912.39;1692932;82;21023;-57
2022/11/11 13:47:15;;;;;;;6.22;4.75;;;;;;;12.59;100.00;100915.69;1713392;81;21592;-57
2022/11/11 13:50:08;;;;;;;6.35;5.08;;;;;;;12.55;100.00;100924.62;1697027;83;21091;-57
2022/11/11 13:53:08;;;;;;;5.37;4.87;;;;;;;12.49;100.00;100931.38;1717461;81;21572;-58
2022/11/11 13:56:02;;;;;;;5.92;4.80;;;;;;;12.45;100.00;100929.28;1645663;85;21713;-58
2022/11/11 13:58:47;;;;;;;7.47;4.75;;;;;;;12.38;100.00;100929.08;1697350;83;21549;-57
2022/11/11 14:01:38;;;;;;;7.40;5.10;;;;;;;12.34;100.00;100932.27;1685382;83;21592;-56
2022/11/11 14:04:24;;;;;;;7.03;5.17;;;;;;;12.35;100.00;100932.66;1681408;83;21672;-57
2022/11/11 14:07:09;;;;;;;6.60;5.15;;;;;;;12.27;100.00;100936.84;1681355;83;21442;-58
2022/11/11 14:10:01;;;;;;;5.45;4.95;;;;;;;12.22;100.00;100940.09;1686258;82;21880;-58
2022/11/11 14:13:18;;;;;;;7.97;4.75;;;;;;;12.19;100.00;100941.48;1686598;83;21577;-58
2022/11/11 14:16:04;;;;;;;6.00;5.40;;;;;;;12.15;100.00;100945.13;1674826;83;21637;-58
2022/11/11 14:18:50;;;;;;;6.72;5.35;;;;;;;12.08;100.00;100944.41;1709657;82;21080;-57
2022/11/11 14:21:48;;;;;;;6.30;5.15;;;;;;;12.02;100.00;100949.02;1707902;82;21672;-57
2022/11/11 14:24:40;;;;;;;9.80;5.33;;;;;;;12.00;100.00;100950.83;1691701;83;22094;-58
2022/11/11 14:27:28;;;;;;;7.35;5.17;;;;;;;11.95;100.00;100953.58;1680567;83;21026;-58
2022/11/11 14:30:36;;;;;;;7.58;6.12;;;;;;;11.88;100.00;100955.50;1680092;83;21594;-58
2022/11/11 14:33:49;;;;;;;7.83;6.05;;;;;;;11.82;100.00;100956.96;1681904;83;21439;-57
2022/11/11 14:36:43;;;;;;;8.33;6.28;;;;;;;11.77;100.00;100963.26;1681838;83;21569;-57
2022/11/11 14:39:48;;;;;;;8.10;5.87;;;;;;;11.71;100.00;100957.70;1685274;83;21781;-58
2022/11/11 14:42:42;;;;;;;7.72;5.90;;;;;;;11.64;100.00;100957.02;1686619;83;21561;-59
2022/11/11 14:45:45;;;;;;;6.47;5.78;;;;;;;11.57;100.00;100958.08;1688968;82;21498;-58
2022/11/11 14:48:57;;;;;;;6.78;5.30;;;;;;;11.52;100.00;100972.27;1674072;83;21403;-58
2022/11/11 14:51:47;;;;;;;6.40;5.58;;;;;;;11.45;100.00;100965.84;1665828;84;21447;-66
2022/11/11 14:55:00;;;;;;;5.78;5.10;;;;;;;11.37;100.00;100973.52;1667016;83;21899;-64
2022/11/11 14:57:53;;;;;;;6.20;5.62;;;;;;;11.29;100.00;100977.20;1673190;83;21455;-66
2022/11/11 15:01:01;;;;;;;5.97;4.95;;;;;;;11.20;100.00;100982.69;1669957;83;21599;-65
2022/11/11 15:03:52;;;;;;;5.55;4.97;;;;;;;11.17;100.00;100989.78;1679647;83;21571;-65
2022/11/11 15:06:50;;;;;;;6.90;5.30;;;;;;;11.05;100.00;100985.23;1679431;83;21642;-65
2022/11/11 15:09:44;;;;;;;6.28;5.37;;;;;;;11.06;100.00;100992.70;1669749;83;21653;-69
2022/11/11 15:13:03;;;;;;;6.53;5.15;;;;;;;11.05;100.00;100998.84;1680211;83;21444;-68
2022/11/11 15:16:33;;;;;;;5.28;4.83;;;;;;;11.03;100.00;101007.23;1678581;83;20956;-69
2022/11/11 15:19:50;;;;;;;7.03;5.47;;;;;;;10.98;100.00;101007.34;1674474;83;21450;-68
2022/11/11 15:23:02;;;;;;;8.20;5.67;;;;;;;10.97;100.00;101006.92;1678036;83;21575;-67
2022/11/11 15:26:15;;;;;;;6.90;5.25;;;;;;;10.93;100.00;101011.84;1673716;83;22178;-69
2022/11/11 15:29:26;;;;;;;6.53;5.85;;;;;;;10.91;100.00;101007.92;1680866;83;21567;-68
2022/11/11 15:32:32;;;;;;;8.03;5.92;;;;;;;10.86;100.00;101011.09;1676604;83;21569;-68
2022/11/11 15:35:35;;;;;;;6.65;5.78;;;;;;;10.81;100.00;101007.73;1678879;83;21007;-68
2022/11/11 15:38:20;;;;;;;6.95;5.58;;;;;;;10.75;100.00;101005.20;1674750;83;21451;-68
2022/11/11 15:41:09;;;;;;;6.08;4.90;;;;;;;10.69;100.00;101009.30;1680629;83;21892;-67
2022/11/11 15:43:54;;;;;;;6.35;5.70;;;;;;;10.63;100.00;101010.29;1672695;83;21517;-67
2022/11/11 15:46:41;;;;;;;7.08;5.67;;;;;;;10.59;100.00;101009.09;1673961;83;21628;-67
2022/11/11 15:49:45;;;;;;;7.05;5.70;;;;;;;10.55;100.00;101008.71;1670593;83;21513;-65
2022/11/11 15:52:33;;;;;;;6.10;5.40;;;;;;;10.49;100.00;101015.85;1666323;83;21022;-65
2022/11/11 15:55:24;;;;;;;6.37;5.78;;;;;;;10.48;100.00;101010.62;1667476;83;22068;-65
2022/11/11 15:58:15;;;;;;;6.95;5.55;;;;;;;10.44;100.00;101011.13;1662772;84;21528;-66
2022/11/11 16:01:06;;;;;;;6.05;5.55;;;;;;;10.46;100.00;101013.27;1663579;84;21704;-66
2022/11/11 16:03:52;;;;;;;6.17;5.37;;;;;;;10.44;100.00;101015.07;1631960;86;21590;-66
2022/11/11 16:06:37;;;;;;;5.72;5.03;;;;;;;10.42;100.00;101018.64;1634151;85;21847;-65
2022/11/11 16:09:26;;;;;;;7.25;5.65;;;;;;;10.42;100.00;101020.81;1638414;86;21888;-66
2022/11/11 16:12:18;;;;;;;7.95;5.75;;;;;;;10.44;100.00;101010.27;1697828;83;21721;-68
2022/11/11 16:15:04;;;;;;;8.48;7.08;;;;;;;10.40;100.00;101010.78;1685634;83;21467;-65
2022/11/11 16:17:49;;;;;;;9.50;8.20;;;;;;;10.37;100.00;101012.14;1692094;83;21544;-65
2022/11/11 16:20:52;;;;;;;11.90;10.03;;;;;;;10.33;100.00;101015.28;1693648;83;21484;-65
2022/11/11 16:23:46;;;;;;;15.08;10.93;;;;;;;10.34;100.00;101017.48;1689492;82;21595;-65
2022/11/11 16:26:36;;;;;;;14.28;11.28;;;;;;;10.28;100.00;101016.23;1695145;83;21515;-65
2022/11/11 16:29:37;;;;;;;12.98;10.32;;;;;;;10.21;100.00;101029.07;1695645;83;21491;-66
2022/11/11 16:32:30;;;;;;;12.13;10.43;;;;;;;10.18;100.00;101035.72;1695431;83;21468;-65
2022/11/11 16:35:32;;;;;;;11.97;8.73;;;;;;;10.13;100.00;101039.31;1659450;84;21573;-67
2022/11/11 16:38:32;;;;;;;10.93;8.23;;;;;;;10.16;100.00;101049.34;1648523;85;21869;-66
2022/11/11 16:41:28;;;;;;;11.10;8.45;;;;;;;10.18;100.00;101060.69;1649196;85;21576;-66
2022/11/11 16:44:42;;;;;;;10.75;7.53;;;;;;;10.19;100.00;101067.66;1649643;85;21526;-65
2022/11/11 16:47:36;;;;;;;8.88;6.70;;;;;;;10.22;100.00;101071.56;1635319;85;21541;-66
2022/11/11 16:50:22;;;;;;;8.95;6.95;;;;;;;10.23;100.00;101058.39;1640213;85;21529;-66
2022/11/11 16:53:07;;;;;;;12.95;7.45;;;;;;;10.22;100.00;101063.22;1643100;85;21452;-66
2022/11/11 16:55:52;;;;;;;9.95;7.60;;;;;;;10.18;100.00;101065.95;1594183;85;21556;-68
2022/11/11 16:58:40;;;;;;;9.45;8.13;;;;;;;10.20;100.00;101064.16;1650062;85;22287;-66
2022/11/11 17:01:26;;;;;;;13.43;8.77;;;;;;;10.20;100.00;101065.02;1642958;85;21605;-66
2022/11/11 17:04:11;;;;;;;13.10;10.05;;;;;;;10.17;100.00;101069.03;1645774;85;21567;-67
2022/11/11 17:07:02;;;;;;;15.32;10.08;;;;;;;10.19;100.00;101072.50;1644662;85;21869;-66
2022/11/11 17:09:45;;;;;;;16.32;11.30;;;;;;;10.19;100.00;101063.72;1644526;85;21098;-66
2022/11/11 17:12:30;;;;;;;13.40;10.75;;;;;;;10.19;100.00;101061.98;1643377;85;21111;-66
2022/11/11 17:15:18;;;;;;;;;;;;;;;10.17;100.00;101056.31;1699337;83;21516;-66
2022/11/11 17:18:07;;;;;;;14.13;9.55;;;;;;;10.14;100.00;101056.80;1693834;82;20450;-66
2022/11/11 17:20:54;;;;;;;12.13;10.55;;;;;;;9.78;100.00;100987.86;1688335;83;22108;-67
2022/11/11 17:23:41;;;;;;;17.02;11.73;;;;;;;10.16;100.00;101051.97;1684371;83;21522;-67
2022/11/11 17:26:26;;;;;;;13.32;11.68;;;;;;;10.17;100.00;101048.00;1689536;83;21070;-67
2022/11/11 17:29:11;;;;;;;13.32;11.93;;;;;;;10.17;100.00;101041.86;1688495;83;21882;-68
2022/11/11 17:32:00;;;;;;;16.93;12.23;;;;;;;10.14;100.00;101033.59;1691773;82;21628;-67
2022/11/11 17:34:46;;;;;;;15.55;12.98;;;;;;;10.18;100.00;101036.58;1699511;82;21831;-67
2022/11/11 17:37:39;;;;;;;17.65;13.03;;;;;;;10.21;100.00;101039.16;1659813;84;21599;-67
2022/11/11 17:40:24;;;;;;;17.85;13.50;;;;;;;10.23;100.00;101045.25;1695961;83;21618;-67
2022/11/11 17:43:09;;;;;;;15.28;13.78;;;;;;;10.23;100.00;101033.87;1696756;83;21574;-66
2022/11/11 17:45:55;;;;;;;15.25;12.33;;;;;;;10.22;100.00;101043.50;1688079;83;21504;-67
2022/11/11 17:48:41;;;;;;;18.05;13.72;;;;;;;10.22;100.00;101038.25;1692279;83;21971;-67
2022/11/11 17:51:26;;;;;;;15.25;12.47;;;;;;;10.22;100.00;101025.56;1684769;83;21210;-68
2022/11/11 23:40:11;;;;;;;18.92;14.10;;;;;;;4.44;100.00;101113.05;1794838;77;27127;-64
2022/11/11 23:42:56;;;;;;;15.45;13.18;;;;;;;4.92;100.00;101113.75;1753838;80;21743;-64
2022/11/11 23:45:42;;;;;;;14.13;11.95;;;;;;;5.09;100.00;101102.94;1769285;80;21828;-63
2022/11/11 23:48:27;;;;;;;17.23;11.78;;;;;;;5.29;100.00;101087.32;1767249;79;21590;-63
2022/11/11 23:51:12;;;;;;;15.10;11.30;;;;;;;5.43;100.00;101083.45;1762385;80;20969;-63
2022/11/11 23:53:57;;;;;;;15.98;11.65;;;;;;;5.53;100.00;101076.50;1754420;79;21474;-63
2022/11/11 23:56:43;;;;;;;15.28;10.58;;;;;;;5.63;100.00;101066.08;1747955;80;21430;-63
2022/11/11 23:59:27;;;;;;;14.38;11.00;;;;;;;5.70;100.00;101072.15;1760376;80;21824;-62
